Time;durP1;ratioP1;P1;durP2;ratioP2;P2;SDS_P1;SDS_P2;PMS_P1;PMS_P2;Temp;Humidity;BMP_temperature;BMP_pressure;BME280_temperature;BME280_humidity;BME280_pressure;Samples;Min_cycle;Max_cycle;Signal;HPM_P1;HPM_P2
2023/06/08 00:07:40;;;;;;;1999.90;999.90;;;18.00;99.90;;;;;;6749124;88;20314;-79
2023/06/08 00:17:41;;;;;;;1999.90;999.90;;;17.90;99.90;;;;;;6749005;88;20177;-77
2023/06/08 00:27:41;;;;;;;1999.90;999.90;;;17.90;99.90;;;;;;6732832;88;20234;-78
2023/06/08 00:37:43;;;;;;;1999.90;999.90;;;17.70;99.90;;;;;;6733571;88;20655;-79
2023/06/08 00:47:46;;;;;;;1999.90;999.90;;;17.60;99.90;;;;;;6741846;88;20227;-77
2023/06/08 00:57:47;;;;;;;1999.90;999.90;;;17.50;99.90;;;;;;6732709;88;20196;-76
2023/06/08 01:08:10;;;;;;;1999.90;999.90;;;17.50;99.90;;;;;;6733104;88;20206;-78
2023/06/08 01:18:17;;;;;;;1999.90;999.90;;;17.30;99.90;;;;;;6733043;88;20716;-77
2023/06/08 01:28:18;;;;;;;1999.90;999.90;;;17.20;99.90;;;;;;6731249;88;20226;-79
2023/06/08 01:38:31;;;;;;;1999.90;999.90;;;17.20;99.90;;;;;;6734644;88;20364;-78
2023/06/08 01:48:32;;;;;;;1999.90;999.90;;;17.00;99.90;;;;;;6734108;88;20205;-77
2023/06/08 01:58:33;;;;;;;1999.90;999.90;;;17.00;99.90;;;;;;6733854;88;20238;-76
2023/06/08 02:18:40;;;;;;;1999.90;999.90;;;16.70;99.90;;;;;;6730844;88;20396;-79
2023/06/08 02:28:40;;;;;;;1999.90;999.90;;;16.60;99.90;;;;;;6740718;88;20243;-79
2023/06/08 02:38:41;;;;;;;1999.90;999.90;;;16.70;99.90;;;;;;6735834;88;20919;-79
2023/06/08 02:48:41;;;;;;;1999.90;999.90;;;16.50;99.90;;;;;;6728623;88;20612;-79
2023/06/08 02:58:46;;;;;;;1999.90;999.90;;;16.50;99.90;;;;;;6742680;88;20615;-79
2023/06/08 03:08:53;;;;;;;1999.90;999.90;;;16.50;99.90;;;;;;6734093;88;20777;-79
2023/06/08 03:18:56;;;;;;;1999.90;999.90;;;16.40;99.90;;;;;;6742422;88;20550;-79
2023/06/08 03:28:56;;;;;;;1999.90;999.90;;;16.40;99.90;;;;;;6709385;88;20240;-78
2023/06/08 03:38:57;;;;;;;1999.90;999.90;;;16.40;99.90;;;;;;6727671;88;20332;-77
2023/06/08 03:48:57;;;;;;;1999.90;999.90;;;16.30;99.90;;;;;;6738471;88;20243;-77
2023/06/08 03:58:58;;;;;;;1999.90;999.90;;;16.20;99.90;;;;;;6737914;88;20284;-77
2023/06/08 04:09:00;;;;;;;1999.90;999.90;;;16.20;99.90;;;;;;6732526;88;20208;-78
2023/06/08 04:19:00;;;;;;;1999.90;999.90;;;16.10;99.90;;;;;;6725270;88;20189;-78
2023/06/08 04:29:03;;;;;;;1999.90;999.90;;;16.10;99.90;;;;;;6726540;88;20224;-78
2023/06/08 04:39:03;;;;;;;1999.90;999.90;;;16.30;99.90;;;;;;6719515;88;20274;-77
2023/06/08 04:49:04;;;;;;;1999.90;999.90;;;16.40;99.90;;;;;;6734413;88;20194;-77
2023/06/08 04:59:05;;;;;;;1999.90;999.90;;;16.50;99.90;;;;;;6726558;88;20239;-80
2023/06/08 05:09:05;;;;;;;1999.90;999.90;;;16.70;99.90;;;;;;6723881;88;20869;-78
2023/06/08 05:19:08;;;;;;;1999.90;999.90;;;16.70;99.90;;;;;;6709990;88;20189;-77
2023/06/08 05:29:08;;;;;;;1999.90;999.90;;;17.00;99.90;;;;;;6710411;88;20206;-78
2023/06/08 05:39:09;;;;;;;1999.90;999.90;;;17.10;99.90;;;;;;6712219;88;20198;-78
2023/06/08 05:49:09;;;;;;;1999.90;999.90;;;17.20;99.90;;;;;;6712027;88;20210;-79
2023/06/08 05:59:10;;;;;;;1999.90;999.90;;;17.40;99.90;;;;;;6713815;88;20243;-79
2023/06/08 06:09:11;;;;;;;1999.90;999.90;;;18.00;99.90;;;;;;6717513;88;20212;-79
2023/06/08 06:19:12;;;;;;;1999.90;999.90;;;19.00;99.90;;;;;;6735082;88;20287;-80
2023/06/08 06:29:15;;;;;;;1999.90;999.90;;;19.90;99.90;;;;;;6748278;88;20716;-82
2023/06/08 06:39:18;;;;;;;1999.90;999.90;;;20.50;99.90;;;;;;6749280;88;20284;-83
2023/06/08 06:49:18;;;;;;;1999.90;999.90;;;21.10;99.90;;;;;;6749350;88;20177;-83
2023/06/08 07:09:24;;;;;;;1999.90;999.90;;;22.00;99.90;;;;;;6770562;87;20189;-84
2023/06/08 07:19:25;;;;;;;1999.90;999.90;;;22.60;99.90;;;;;;6784017;87;20410;-84
2023/06/08 07:29:25;;;;;;;1999.90;999.90;;;23.50;99.90;;;;;;6775500;87;20252;-80
2023/06/08 07:39:26;;;;;;;1999.90;999.90;;;23.70;99.90;;;;;;6785003;87;20183;-82
2023/06/08 07:49:30;;;;;;;1999.90;999.90;;;24.20;99.90;;;;;;6785135;87;20263;-78
2023/06/08 07:59:30;;;;;;;1999.90;999.90;;;24.50;99.90;;;;;;6777527;87;20194;-81
2023/06/08 08:19:40;;;;;;;1999.90;999.90;;;25.20;99.90;;;;;;6748287;87;20689;-78
2023/06/08 08:29:40;;;;;;;1999.90;999.90;;;26.40;99.90;;;;;;6757556;87;20182;-78
2023/06/08 08:39:41;;;;;;;1999.90;999.90;;;26.80;99.70;;;;;;6749010;88;20717;-78
2023/06/08 08:49:43;;;;;;;1999.90;999.90;;;27.30;98.10;;;;;;6750597;88;20197;-79
2023/06/08 08:59:44;;;;;;;;;;;27.00;99.10;;;;;;6759099;88;20176;-76
2023/06/08 09:10:21;;;;;;;1999.90;999.90;;;27.40;97.50;;;;;;6751127;88;20060;-77
2023/06/08 09:20:27;;;;;;;1999.90;999.90;;;27.10;97.60;;;;;;6751023;88;20219;-78
2023/06/08 09:30:28;;;;;;;1999.90;999.90;;;27.00;98.30;;;;;;6745865;88;20185;-78
2023/06/08 09:40:29;;;;;;;1999.90;999.90;;;28.40;96.70;;;;;;6757979;88;20275;-79
2023/06/08 09:50:29;;;;;;;1999.90;999.90;;;29.00;97.10;;;;;;6761614;88;20185;-80
2023/06/08 10:00:33;;;;;;;1999.90;999.90;;;29.70;95.70;;;;;;6765981;87;20558;-79
2023/06/08 10:10:42;;;;;;;1999.90;999.90;;;31.20;94.60;;;;;;6760155;88;20206;-81
2023/06/08 10:20:43;;;;;;;1999.90;999.90;;;32.30;93.20;;;;;;6766369;88;20201;-81
2023/06/08 10:30:44;;;;;;;1999.90;999.90;;;31.30;93.00;;;;;;6768130;88;20209;-78
2023/06/08 10:40:47;;;;;;;1999.90;999.90;;;32.10;92.60;;;;;;6767506;88;20213;-78
2023/06/08 10:50:50;;;;;;;1999.90;999.90;;;31.00;92.00;;;;;;6764349;88;20270;-79
2023/06/08 11:01:03;;;;;;;1999.90;999.90;;;31.40;92.40;;;;;;6767772;88;20589;-78
2023/06/08 11:11:04;;;;;;;1999.90;999.90;;;31.40;91.50;;;;;;6764110;88;20321;-80
2023/06/08 11:21:05;;;;;;;1999.90;999.90;;;32.30;91.10;;;;;;6757082;88;20317;-80
2023/06/08 11:31:06;;;;;;;;;;;31.30;90.10;;;;;;6759217;88;20505;-78
2023/06/08 11:41:10;;;;;;;1999.90;999.90;;;31.00;91.20;;;;;;6755977;88;20110;-79
2023/06/08 11:51:10;;;;;;;1999.90;999.90;;;30.40;91.20;;;;;;6750063;88;20177;-79
2023/06/08 12:01:12;;;;;;;1999.90;999.90;;;31.90;90.10;;;;;;6752058;88;20219;-77
2023/06/08 12:11:13;;;;;;;1999.90;999.90;;;31.90;88.60;;;;;;6753532;88;20301;-78
2023/06/08 12:21:15;;;;;;;1999.90;999.90;;;31.90;89.10;;;;;;6757987;87;20331;-80
2023/06/08 12:31:16;;;;;;;1999.90;999.90;;;33.80;87.60;;;;;;6752518;88;20184;-78
2023/06/08 12:41:18;;;;;;;1999.90;999.90;;;33.40;86.60;;;;;;6746914;88;20558;-78
2023/06/08 12:51:19;;;;;;;1999.90;999.90;;;33.60;84.50;;;;;;6751642;88;20324;-79
2023/06/08 13:01:22;;;;;;;;;;;34.30;81.80;;;;;;6753764;88;20607;-80
2023/06/08 13:11:23;;;;;;;1999.90;999.90;;;34.80;82.30;;;;;;6745173;88;20053;-78
2023/06/08 13:21:24;;;;;;;1999.90;999.90;;;33.30;86.20;;;;;;6748649;88;20222;-78
2023/06/08 13:31:25;;;;;;;1999.90;999.90;;;27.80;99.90;;;;;;6752796;88;20559;-78
2023/06/08 13:41:26;;;;;;;1999.90;999.90;;;25.50;99.90;;;;;;6750767;88;20236;-79
2023/06/08 13:51:27;;;;;;;1999.90;999.90;;;24.80;99.90;;;;;;6750447;88;20676;-77
2023/06/08 14:01:29;;;;;;;1999.90;999.90;;;25.40;99.90;;;;;;6752845;88;20680;-77
2023/06/08 14:21:33;;;;;;;1999.90;999.90;;;29.30;99.90;;;;;;6763409;87;20248;-78
2023/06/08 14:31:34;;;;;;;1999.90;999.90;;;31.10;96.70;;;;;;6760156;87;20245;-78
2023/06/08 14:41:34;;;;;;;1999.90;999.90;;;30.90;96.10;;;;;;6760553;87;20173;-79
2023/06/08 14:51:35;;;;;;;1999.90;999.90;;;30.10;98.10;;;;;;6763540;87;20209;-80
2023/06/08 15:01:35;;;;;;;1999.90;999.90;;;29.90;98.70;;;;;;6769792;87;20247;-79
2023/06/08 15:11:36;;;;;;;1999.90;999.90;;;30.40;96.40;;;;;;6771489;87;20269;-79
2023/06/08 15:21:37;;;;;;;1999.90;999.90;;;31.10;95.30;;;;;;6752869;88;20182;-79
2023/06/08 15:31:39;;;;;;;1999.90;999.90;;;31.30;93.30;;;;;;6751050;88;20198;-79
2023/06/08 15:41:39;;;;;;;1999.90;999.90;;;31.50;93.20;;;;;;6745031;88;20200;-79
2023/06/08 15:51:43;;;;;;;1999.90;999.90;;;31.20;94.10;;;;;;6745687;88;20339;-78
2023/06/08 16:01:43;;;;;;;1999.90;999.90;;;30.00;95.60;;;;;;6753017;88;20263;-78
2023/06/08 16:11:44;;;;;;;1999.90;999.90;;;29.40;95.80;;;;;;6753155;87;20282;-80
2023/06/08 16:21:46;;;;;;;1999.90;999.90;;;29.30;95.90;;;;;;6768041;87;20224;-80
2023/06/08 16:31:48;;;;;;;1999.90;999.90;;;29.70;95.50;;;;;;6763228;87;20647;-79
2023/06/08 16:41:49;;;;;;;1999.90;999.90;;;29.60;96.20;;;;;;6772961;87;20547;-80
2023/06/08 16:51:51;;;;;;;1999.90;999.90;;;29.90;95.60;;;;;;6770258;87;20196;-80
2023/06/08 17:01:52;;;;;;;1999.90;999.90;;;29.80;93.80;;;;;;6764447;87;20201;-79
2023/06/08 17:11:52;;;;;;;1999.90;999.90;;;27.30;90.00;;;;;;6759980;87;20279;-80
2023/06/08 17:21:53;;;;;;;1999.90;999.90;;;26.90;89.60;;;;;;6762196;87;20182;-80
2023/06/08 17:31:54;;;;;;;1999.90;999.90;;;26.50;89.40;;;;;;6758625;87;20336;-79
2023/06/08 17:41:54;;;;;;;1999.90;999.90;;;25.70;90.60;;;;;;6757825;87;20184;-79
2023/06/08 17:51:55;;;;;;;1999.90;999.90;;;24.90;92.30;;;;;;6754533;87;20201;-80
2023/06/08 18:01:56;;;;;;;1999.90;999.90;;;24.60;96.60;;;;;;6749255;87;20293;-79
2023/06/08 18:11:56;;;;;;;1999.90;999.90;;;23.90;98.30;;;;;;6753056;87;20727;-79
2023/06/08 18:21:57;;;;;;;1999.90;999.90;;;23.30;99.90;;;;;;6752211;87;20184;-78
2023/06/08 18:31:57;;;;;;;1999.90;999.90;;;23.00;99.50;;;;;;6739577;88;20274;-77
2023/06/08 18:41:58;;;;;;;1999.90;999.90;;;22.70;99.90;;;;;;6738598;88;20388;-78
2023/06/08 18:52:02;;;;;;;1999.90;999.90;;;22.60;99.90;;;;;;6744113;88;20202;-79
2023/06/08 19:02:02;;;;;;;;;;;22.60;99.90;;;;;;6755222;88;20188;-78
2023/06/08 19:12:03;;;;;;;1999.90;999.90;;;22.60;99.90;;;;;;6745727;88;20162;-77
2023/06/08 19:22:05;;;;;;;1999.90;999.90;;;22.70;99.90;;;;;;6740735;87;20200;-80
2023/06/08 19:32:06;;;;;;;1999.90;999.90;;;22.40;99.90;;;;;;6767722;87;20187;-80
2023/06/08 19:42:07;;;;;;;1999.90;999.90;;;22.30;99.90;;;;;;6764341;88;20665;-80
2023/06/08 19:52:08;;;;;;;1999.90;999.90;;;22.00;99.90;;;;;;6759532;87;20196;-79
2023/06/08 20:02:09;;;;;;;1999.90;999.90;;;21.70;99.90;;;;;;6757640;88;20270;-78
2023/06/08 20:12:10;;;;;;;1999.90;999.90;;;21.40;99.90;;;;;;6759426;77;20227;-78
2023/06/08 20:22:10;;;;;;;1999.90;999.90;;;21.20;99.90;;;;;;6765206;87;20676;-78
2023/06/08 20:32:14;;;;;;;1999.90;999.90;;;20.90;99.90;;;;;;6769899;87;20227;-82
2023/06/08 20:52:18;;;;;;;1999.90;999.90;;;20.80;99.90;;;;;;6770740;87;20902;-81
2023/06/08 21:13:03;;;;;;;1999.90;999.90;;;20.50;99.90;;;;;;6785317;76;20313;-81
2023/06/08 21:23:04;;;;;;;1999.90;999.90;;;20.40;99.90;;;;;;6785495;87;20160;-84
2023/06/08 21:43:49;;;;;;;1999.90;999.90;;;19.70;99.90;;;;;;6814905;77;20494;-82
2023/06/08 22:04:52;;;;;;;1999.90;999.90;;;19.20;99.90;;;;;;6707656;89;20255;-80
2023/06/08 22:14:52;;;;;;;1999.90;999.90;;;19.10;99.90;;;;;;6705545;89;20348;-81
2023/06/08 22:24:53;;;;;;;1999.90;999.90;;;18.80;99.90;;;;;;6703765;89;20278;-79
2023/06/08 22:34:54;;;;;;;1999.90;999.90;;;18.70;99.90;;;;;;6701071;88;20613;-80
2023/06/08 22:44:55;;;;;;;1999.90;999.90;;;18.60;99.90;;;;;;6704411;89;20186;-80
2023/06/08 22:54:55;;;;;;;1999.90;999.90;;;18.50;99.90;;;;;;6702759;88;20220;-80
2023/06/08 23:04:56;;;;;;;1999.90;999.90;;;18.60;99.90;;;;;;6705800;88;20182;-80
2023/06/08 23:14:59;;;;;;;1999.90;999.90;;;18.30;99.90;;;;;;6705674;89;20195;-80
2023/06/08 23:25:00;;;;;;;1999.90;999.90;;;18.30;99.90;;;;;;6693180;88;20185;-80
2023/06/08 23:35:00;;;;;;;1999.90;999.90;;;18.10;99.90;;;;;;6689202;88;20201;-81
2023/06/08 23:45:02;;;;;;;1999.90;999.90;;;18.00;99.90;;;;;;6687145;89;20224;-80
2023/06/08 23:55:02;;;;;;;1999.90;999.90;;;17.90;99.90;;;;;;6692955;88;21163;-80
